Time;durP1;ratioP1;P1;durP2;ratioP2;P2;SDS_P1;SDS_P2;PMS_P1;PMS_P2;Temp;Humidity;BMP_temperature;BMP_pressure;BME280_temperature;BME280_humidity;BME280_pressure;Samples;Min_cycle;Max_cycle;Signal;HPM_P1;HPM_P2
2022/08/29 00:00:17;;;;;;;;;;;18.00;87.80;;;;;;5050809;28;19913;-52
2022/08/29 00:02:43;;;;;;;;;;;17.90;87.70;;;;;;5051757;28;19917;-51
2022/08/29 00:05:08;;;;;;;;;;;17.90;87.10;;;;;;5051707;28;20559;-54
2022/08/29 00:07:34;;;;;;;;;;;18.00;86.70;;;;;;5052808;28;20003;-53
2022/08/29 00:10:02;;;;;;;;;;;17.80;87.20;;;;;;5056312;28;20373;-54
2022/08/29 00:12:28;;;;;;;;;;;17.80;87.80;;;;;;5054956;28;19974;-51
2022/08/29 00:14:53;;;;;;;;;;;17.80;87.60;;;;;;5054912;28;20323;-49
2022/08/29 00:17:19;;;;;;;;;;;17.80;87.40;;;;;;5054817;28;19958;-50
2022/08/29 00:19:44;;;;;;;;;;;17.80;87.60;;;;;;5055129;28;20005;-53
2022/08/29 00:22:10;;;;;;;;;;;17.70;87.50;;;;;;5055010;28;19959;-45
2022/08/29 00:24:35;;;;;;;;;;;17.40;88.20;;;;;;5054004;28;19962;-46
2022/08/29 00:27:01;;;;;;;;;;;17.30;88.30;;;;;;5055444;28;19917;-49
2022/08/29 00:29:27;;;;;;;;;;;17.30;88.00;;;;;;5053891;28;20016;-49
2022/08/29 00:31:53;;;;;;;;;;;17.40;88.20;;;;;;5054743;28;20300;-55
2022/08/29 00:34:19;;;;;;;;;;;17.50;88.30;;;;;;5055275;28;19931;-55
2022/08/29 00:36:44;;;;;;;;;;;17.40;87.70;;;;;;5054734;28;20426;-49
2022/08/29 00:39:10;;;;;;;;;;;17.50;88.00;;;;;;5054173;28;20007;-50
2022/08/29 00:41:35;;;;;;;;;;;17.50;87.60;;;;;;5052679;28;20005;-50
2022/08/29 00:44:01;;;;;;;;;;;17.50;87.60;;;;;;5055419;28;20392;-46
2022/08/29 00:46:30;;;;;;;;;;;17.40;88.20;;;;;;5055025;28;20301;-50
2022/08/29 00:48:57;;;;;;;;;;;17.50;87.80;;;;;;5058861;28;19931;-49
2022/08/29 00:51:23;;;;;;;;;;;17.50;88.00;;;;;;5058675;28;20515;-48
2022/08/29 00:53:51;;;;;;;;;;;17.50;88.10;;;;;;5056487;28;19948;-49
2022/08/29 00:56:17;;;;;;;;;;;17.50;87.60;;;;;;5038355;28;19908;-47
2022/08/29 00:58:50;;;;;;;;;;;17.40;88.10;;;;;;5055473;28;19920;-47
2022/08/29 01:01:15;;;;;;;;;;;17.40;88.20;;;;;;5053916;28;19919;-50
2022/08/29 01:03:41;;;;;;;;;;;17.40;88.20;;;;;;5054374;28;20194;-47
2022/08/29 01:06:07;;;;;;;;;;;17.40;88.50;;;;;;5053993;28;19935;-52
2022/08/29 01:08:33;;;;;;;;;;;17.40;88.70;;;;;;5054756;28;20348;-46
2022/08/29 01:13:45;;;;;;;;;;;17.50;89.30;;;;;;5054368;28;20315;-53
2022/08/29 01:16:13;;;;;;;;;;;17.40;89.20;;;;;;5054783;28;19996;-50
2022/08/29 01:18:41;;;;;;;;;;;17.40;88.30;;;;;;5052237;28;19925;-50
2022/08/29 01:21:06;;;;;;;;;;;17.30;89.10;;;;;;5053419;28;19917;-50
2022/08/29 01:23:40;;;;;;;;;;;17.40;89.70;;;;;;5052729;28;19917;-53
2022/08/29 01:26:06;;;;;;;;;;;17.30;89.00;;;;;;5053578;28;20399;-53
2022/08/29 01:28:33;;;;;;;;;;;17.20;90.10;;;;;;5053213;28;20434;-49
2022/08/29 01:31:02;;;;;;;;;;;17.30;90.10;;;;;;5051957;28;19909;-50
2022/08/29 01:33:34;;;;;;;;;;;17.20;90.20;;;;;;5050823;28;19962;-52
2022/08/29 01:36:00;;;;;;;;;;;17.10;90.30;;;;;;5051779;28;20261;-46
2022/08/29 01:38:28;;;;;;;;;;;17.00;90.40;;;;;;5053451;28;19909;-49
2022/08/29 01:40:55;;;;;;;;;;;17.00;90.70;;;;;;5051665;28;19912;-49
2022/08/29 01:43:21;;;;;;;;;;;17.00;90.90;;;;;;5052523;28;19913;-51
2022/08/29 01:45:47;;;;;;;;;;;17.00;90.90;;;;;;5053979;28;20341;-48
2022/08/29 01:48:13;;;;;;;;;;;17.00;90.80;;;;;;5053833;28;19920;-50
2022/08/29 01:50:38;;;;;;;;;;;17.00;91.10;;;;;;5053942;28;19913;-50
2022/08/29 01:53:04;;;;;;;;;;;16.90;91.10;;;;;;5053778;28;19987;-54
2022/08/29 01:55:29;;;;;;;;;;;16.90;91.10;;;;;;5053895;28;20304;-47
2022/08/29 01:57:55;;;;;;;;;;;16.90;91.50;;;;;;5053102;28;20296;-48
2022/08/29 02:00:21;;;;;;;;;;;16.90;91.30;;;;;;5053303;28;20280;-55
2022/08/29 02:02:46;;;;;;;;;;;16.90;91.30;;;;;;5052540;28;20399;-46
2022/08/29 02:05:12;;;;;;;;;;;16.90;91.50;;;;;;5053836;28;19964;-48
2022/08/29 02:07:38;;;;;;;;;;;16.80;91.50;;;;;;5053524;28;19939;-49
2022/08/29 02:10:04;;;;;;;;;;;16.70;91.20;;;;;;5053133;28;19916;-51
2022/08/29 02:12:30;;;;;;;;;;;16.60;91.30;;;;;;5052586;28;20356;-47
2022/08/29 02:14:56;;;;;;;;;;;16.50;91.30;;;;;;5053342;28;19920;-49
2022/08/29 02:17:22;;;;;;;;;;;16.40;91.50;;;;;;5053698;28;19921;-50
2022/08/29 02:19:48;;;;;;;;;;;16.20;91.80;;;;;;5053538;28;20410;-48
2022/08/29 02:22:14;;;;;;;;;;;16.00;92.20;;;;;;5051951;28;19917;-51
2022/08/29 02:24:40;;;;;;;;;;;15.90;92.70;;;;;;5052261;28;19920;-52
2022/08/29 02:27:06;;;;;;;;;;;16.00;92.30;;;;;;5053294;28;19953;-49
2022/08/29 02:29:31;;;;;;;;;;;16.10;92.70;;;;;;5053103;28;19920;-48
2022/08/29 02:31:57;;;;;;;;;;;16.30;92.30;;;;;;5051034;28;20535;-46
2022/08/29 02:34:23;;;;;;;;;;;16.30;92.30;;;;;;5054383;28;19920;-48
2022/08/29 02:36:49;;;;;;;;;;;16.30;92.30;;;;;;5065567;28;19913;-48
2022/08/29 02:39:14;;;;;;;;;;;16.40;92.30;;;;;;5065602;28;19940;-52
2022/08/29 02:41:40;;;;;;;;;;;16.40;92.40;;;;;;5058963;28;19919;-46
2022/08/29 02:44:06;;;;;;;;;;;16.40;92.30;;;;;;5052698;28;19956;-46
2022/08/29 02:46:32;;;;;;;;;;;16.40;92.00;;;;;;5053027;28;20357;-49
2022/08/29 02:48:57;;;;;;;;;;;16.50;92.00;;;;;;5052518;28;19915;-46
2022/08/29 02:51:24;;;;;;;;;;;16.40;92.30;;;;;;5052154;28;20353;-48
2022/08/29 02:53:50;;;;;;;;;;;16.40;92.10;;;;;;5052599;28;19913;-45
2022/08/29 02:56:16;;;;;;;;;;;16.30;92.20;;;;;;5032797;28;20384;-46
2022/08/29 02:58:42;;;;;;;;;;;16.20;92.30;;;;;;5031498;28;20331;-46
2022/08/29 03:01:08;;;;;;;;;;;16.20;92.30;;;;;;5032215;28;20004;-48
2022/08/29 03:03:34;;;;;;;;;;;16.10;93.00;;;;;;5031848;28;19913;-47
2022/08/29 03:05:59;;;;;;;;;;;16.00;92.90;;;;;;5032428;28;20369;-50
2022/08/29 03:08:25;;;;;;;;;;;16.10;92.80;;;;;;5033854;28;20329;-53
2022/08/29 03:10:51;;;;;;;;;;;16.20;93.00;;;;;;5052144;28;20241;-46
2022/08/29 03:13:17;;;;;;;;;;;16.20;92.50;;;;;;5051572;28;20438;-46
2022/08/29 03:15:43;;;;;;;;;;;16.20;92.70;;;;;;5052399;28;19916;-45
2022/08/29 03:18:08;;;;;;;;;;;16.20;93.00;;;;;;5052629;28;19912;-47
2022/08/29 03:20:35;;;;;;;;;;;16.10;92.90;;;;;;5052037;28;19913;-52
2022/08/29 03:23:01;;;;;;;;;;;16.00;93.40;;;;;;5050503;28;19935;-49
2022/08/29 03:25:26;;;;;;;;;;;16.00;93.50;;;;;;5052536;28;20007;-51
2022/08/29 03:27:52;;;;;;;;;;;15.90;93.50;;;;;;5052479;28;19917;-49
2022/08/29 03:30:18;;;;;;;;;;;15.70;93.50;;;;;;5053136;28;19920;-51
2022/08/29 03:32:44;;;;;;;;;;;15.60;94.10;;;;;;5051592;28;19913;-54
2022/08/29 03:35:11;;;;;;;;;;;15.50;94.30;;;;;;5052232;28;19913;-50
2022/08/29 03:37:37;;;;;;;;;;;15.60;94.50;;;;;;5052532;28;19914;-48
2022/08/29 03:40:03;;;;;;;;;;;15.70;94.40;;;;;;5053032;28;20284;-50
2022/08/29 03:42:29;;;;;;;;;;;15.60;94.10;;;;;;5054135;28;19917;-46
2022/08/29 03:44:54;;;;;;;;;;;15.50;94.30;;;;;;5054884;28;20373;-48
2022/08/29 03:47:20;;;;;;;;;;;15.30;94.90;;;;;;5057058;28;19909;-49
2022/08/29 03:49:45;;;;;;;;;;;15.20;94.90;;;;;;5055025;28;19908;-47
2022/08/29 03:52:11;;;;;;;;;;;15.00;95.50;;;;;;5055598;28;19949;-48
2022/08/29 03:54:37;;;;;;;;;;;14.90;96.30;;;;;;5055985;28;20019;-47
2022/08/29 03:57:06;;;;;;;;;;;15.10;96.00;;;;;;5055941;28;19916;-48
2022/08/29 03:59:32;;;;;;;;;;;15.20;95.60;;;;;;5056047;28;19912;-47
2022/08/29 04:01:58;;;;;;;;;;;15.10;95.90;;;;;;5055758;28;20019;-52
2022/08/29 04:07:08;;;;;;;;;;;15.00;96.00;;;;;;5056372;28;19909;-45
2022/08/29 04:09:35;;;;;;;;;;;14.80;96.60;;;;;;5054902;28;19920;-49
2022/08/29 04:12:01;;;;;;;;;;;14.60;97.10;;;;;;5055121;28;19996;-48
2022/08/29 04:14:28;;;;;;;;;;;14.70;97.40;;;;;;5055607;28;19940;-46
2022/08/29 04:16:54;;;;;;;;;;;14.90;97.00;;;;;;5055420;28;19913;-50
2022/08/29 04:19:20;;;;;;;;;;;15.10;96.80;;;;;;5056007;28;20281;-48
2022/08/29 04:21:47;;;;;;;;;;;14.90;96.80;;;;;;5054731;28;19915;-50
2022/08/29 04:24:13;;;;;;;;;;;14.70;97.70;;;;;;5055533;28;19913;-49
2022/08/29 04:26:39;;;;;;;;;;;14.80;97.30;;;;;;5056539;28;20019;-52
2022/08/29 04:29:07;;;;;;;;;;;14.70;97.60;;;;;;5057495;28;19916;-49
2022/08/29 04:31:33;;;;;;;;;;;14.70;97.80;;;;;;5057468;28;19943;-49
2022/08/29 04:33:58;;;;;;;;;;;14.60;97.90;;;;;;5056211;28;19913;-49
2022/08/29 04:36:24;;;;;;;;;;;14.60;97.90;;;;;;5054338;28;20369;-50
2022/08/29 04:38:50;;;;;;;;;;;14.70;97.90;;;;;;5055674;28;19920;-50
2022/08/29 04:41:15;;;;;;;;;;;14.70;98.10;;;;;;5036540;28;19917;-50
2022/08/29 04:43:41;;;;;;;;;;;14.70;98.40;;;;;;5054579;28;20003;-52
2022/08/29 04:46:07;;;;;;;;;;;14.80;98.10;;;;;;5054865;28;19915;-48
2022/08/29 04:48:33;;;;;;;;;;;14.90;97.90;;;;;;5054766;28;20011;-45
2022/08/29 04:50:59;;;;;;;;;;;14.80;97.80;;;;;;5054942;28;19935;-47
2022/08/29 04:53:26;;;;;;;;;;;14.80;97.90;;;;;;5053751;28;19913;-45
2022/08/29 04:55:58;;;;;;;;;;;14.70;98.20;;;;;;5054827;28;19913;-46
2022/08/29 04:58:24;;;;;;;;;;;14.90;98.30;;;;;;5055251;28;19967;-52
2022/08/29 05:00:54;;;;;;;;;;;15.00;98.10;;;;;;5055706;28;20308;-54
2022/08/29 05:03:20;;;;;;;;;;;15.10;97.90;;;;;;5053427;28;20364;-48
2022/08/29 05:05:53;;;;;;;;;;;15.00;97.80;;;;;;5055384;28;20328;-47
2022/08/29 05:08:19;;;;;;;;;;;15.00;97.90;;;;;;5055236;28;19913;-46
2022/08/29 05:10:46;;;;;;;;;;;15.10;98.00;;;;;;5054749;28;19966;-47
2022/08/29 05:13:11;;;;;;;;;;;15.10;98.00;;;;;;5054627;28;19924;-49
2022/08/29 05:15:37;;;;;;;;;;;15.00;98.00;;;;;;5054413;28;19913;-47
2022/08/29 05:18:03;;;;;;;;;;;15.00;98.20;;;;;;5055349;28;19943;-48
2022/08/29 05:20:30;;;;;;;;;;;15.10;98.30;;;;;;5069992;28;19909;-51
2022/08/29 05:22:56;;;;;;;;;;;15.20;97.90;;;;;;5053174;28;20050;-46
2022/08/29 05:25:22;;;;;;;;;;;15.30;97.70;;;;;;5057326;28;19924;-48
2022/08/29 05:27:48;;;;;;;;;;;15.30;97.70;;;;;;5055532;28;19913;-46
2022/08/29 05:30:15;;;;;;;;;;;15.20;97.70;;;;;;5056363;28;20008;-45
2022/08/29 05:32:40;;;;;;;;;;;15.30;97.50;;;;;;5055261;28;19974;-45
2022/08/29 05:35:06;;;;;;;;;;;15.30;97.30;;;;;;5054521;28;19908;-47
2022/08/29 05:37:32;;;;;;;;;;;15.30;97.80;;;;;;5054867;28;19917;-48
2022/08/29 05:39:58;;;;;;;;;;;15.40;97.40;;;;;;5054069;28;20003;-46
2022/08/29 05:42:26;;;;;;;;;;;15.50;97.40;;;;;;5053535;28;19920;-48
2022/08/29 05:44:52;;;;;;;;;;;15.20;97.70;;;;;;5054096;28;19924;-53
2022/08/29 05:47:18;;;;;;;;;;;15.20;97.70;;;;;;5057381;28;19909;-52
2022/08/29 05:49:45;;;;;;;;;;;15.10;97.80;;;;;;5061641;28;20006;-51
2022/08/29 05:52:11;;;;;;;;;;;15.10;97.80;;;;;;5059397;28;19920;-47
2022/08/29 05:54:38;;;;;;;;;;;15.10;97.80;;;;;;5055189;28;19913;-45
2022/08/29 05:57:04;;;;;;;;;;;15.20;97.80;;;;;;5054639;28;19965;-49
2022/08/29 05:59:29;;;;;;;;;;;15.30;97.70;;;;;;5054287;28;19913;-52
2022/08/29 06:01:55;;;;;;;;;;;15.30;97.80;;;;;;5053169;28;19966;-49
2022/08/29 06:04:20;;;;;;;;;;;15.40;97.60;;;;;;5054104;28;19919;-50
2022/08/29 06:06:46;;;;;;;;;;;15.50;97.50;;;;;;5053433;28;19913;-52
2022/08/29 06:09:11;;;;;;;;;;;15.60;97.40;;;;;;5053504;28;19913;-51
2022/08/29 06:11:37;;;;;;;;;;;15.70;97.40;;;;;;5053666;28;19908;-48
2022/08/29 06:14:03;;;;;;;;;;;15.90;97.00;;;;;;5053964;28;19942;-47
2022/08/29 06:16:29;;;;;;;;;;;15.80;97.10;;;;;;5053962;28;19915;-50
2022/08/29 06:18:55;;;;;;;;;;;15.90;97.00;;;;;;5053895;28;20288;-50
2022/08/29 06:21:21;;;;;;;;;;;15.80;97.10;;;;;;5052382;28;19996;-51
2022/08/29 06:23:46;;;;;;;;;;;15.90;97.20;;;;;;5053324;28;20011;-52
2022/08/29 06:26:13;;;;;;;;;;;16.00;97.00;;;;;;5053333;28;19959;-54
2022/08/29 06:28:40;;;;;;;;;;;16.00;97.20;;;;;;5052478;28;19963;-52
2022/08/29 06:31:10;;;;;;;;;;;15.90;97.30;;;;;;5053720;28;19912;-52
2022/08/29 06:33:36;;;;;;;;;;;16.10;97.20;;;;;;5053819;28;19909;-53
2022/08/29 06:36:02;;;;;;;;;;;16.20;97.10;;;;;;5053068;28;19924;-51
2022/08/29 06:38:28;;;;;;;;;;;16.40;96.90;;;;;;5053834;28;20015;-48
2022/08/29 06:40:53;;;;;;;;;;;16.50;96.70;;;;;;5050997;28;19959;-53
2022/08/29 06:43:19;;;;;;;;;;;16.70;96.30;;;;;;5052143;28;19917;-51
2022/08/29 06:45:44;;;;;;;;;;;16.80;96.20;;;;;;5052812;28;19917;-50
2022/08/29 06:48:10;;;;;;;;;;;16.90;96.10;;;;;;5052678;28;19939;-50
2022/08/29 06:50:36;;;;;;;;;;;16.90;95.80;;;;;;5052935;28;20297;-50
2022/08/29 06:53:02;;;;;;;;;;;17.10;95.90;;;;;;5053257;28;19913;-46
2022/08/29 06:55:28;;;;;;;;;;;17.10;95.90;;;;;;5052628;28;19916;-54
2022/08/29 06:57:54;;;;;;;;;;;17.20;95.90;;;;;;5051325;28;19932;-47
2022/08/29 07:00:20;;;;;;;;;;;17.30;95.90;;;;;;5053280;28;19920;-49
2022/08/29 07:02:49;;;;;;;;;;;17.50;95.10;;;;;;5052317;28;19964;-50
2022/08/29 07:05:15;;;;;;;;;;;17.60;94.40;;;;;;5053357;28;19944;-49
2022/08/29 07:07:41;;;;;;;;;;;17.70;94.50;;;;;;5035191;28;19947;-53
2022/08/29 07:10:07;;;;;;;;;;;17.70;94.30;;;;;;5052730;28;19915;-46
2022/08/29 07:12:33;;;;;;;;;;;17.90;93.70;;;;;;5053354;28;19920;-50
2022/08/29 07:15:00;;;;;;;;;;;18.00;93.40;;;;;;5052776;28;19908;-51
2022/08/29 07:17:27;;;;;;;;;;;18.10;93.30;;;;;;5054564;28;19909;-48
2022/08/29 07:19:53;;;;;;;;;;;18.10;93.30;;;;;;5057307;28;19943;-47
2022/08/29 07:22:18;;;;;;;;;;;17.90;93.60;;;;;;5056005;28;20347;-51
2022/08/29 07:24:44;;;;;;;;;;;17.90;93.80;;;;;;5056582;28;19909;-51
2022/08/29 07:27:10;;;;;;;;;;;17.90;93.90;;;;;;5057576;28;19912;-50
2022/08/29 07:29:35;;;;;;;;;;;18.00;93.90;;;;;;5057068;28;19944;-53
2022/08/29 07:32:01;;;;;;;;;;;18.10;93.50;;;;;;5058327;28;19913;-47
2022/08/29 07:34:27;;;;;;;;;;;18.20;93.50;;;;;;5056327;28;19936;-49
2022/08/29 07:36:52;;;;;;;;;;;18.30;93.50;;;;;;5056942;28;20495;-49
2022/08/29 07:39:18;;;;;;;;;;;18.30;93.00;;;;;;5055305;28;19928;-52
2022/08/29 07:41:44;;;;;;;;;;;18.20;93.20;;;;;;5055751;28;19913;-54
2022/08/29 07:44:10;;;;;;;;;;;18.20;93.60;;;;;;5056774;28;19917;-45
2022/08/29 07:46:36;;;;;;;;;;;18.30;93.40;;;;;;5058079;28;20019;-46
2022/08/29 07:49:01;;;;;;;;;;;18.40;93.00;;;;;;5056339;28;20283;-47
2022/08/29 07:51:27;;;;;;;;;;;18.60;92.90;;;;;;5056265;28;20390;-50
2022/08/29 07:53:53;;;;;;;;;;;18.80;92.80;;;;;;5056898;28;20008;-52
2022/08/29 07:56:22;;;;;;;;;;;19.00;92.40;;;;;;5057822;28;19932;-51
2022/08/29 07:58:48;;;;;;;;;;;19.10;92.40;;;;;;5056914;28;19908;-46
2022/08/29 08:01:14;;;;;;;;;;;19.20;91.80;;;;;;5055766;28;19948;-48
2022/08/29 08:03:41;;;;;;;;;;;19.30;92.00;;;;;;5057446;28;19913;-48
2022/08/29 08:06:07;;;;;;;;;;;19.50;91.10;;;;;;5057862;28;19995;-49
2022/08/29 08:08:33;;;;;;;;;;;19.60;91.10;;;;;;5054015;28;20328;-53
2022/08/29 08:10:59;;;;;;;;;;;19.70;91.10;;;;;;5055350;28;20009;-46
2022/08/29 08:13:24;;;;;;;;;;;19.70;91.20;;;;;;5054402;28;19925;-47
2022/08/29 08:15:50;;;;;;;;;;;19.50;91.80;;;;;;5057309;28;19952;-50
2022/08/29 08:18:15;;;;;;;;;;;19.60;91.90;;;;;;5056190;28;19909;-54
2022/08/29 08:20:47;;;;;;;;;;;19.60;91.70;;;;;;5055408;28;19917;-47
2022/08/29 08:23:15;;;;;;;;;;;19.50;92.10;;;;;;5052027;28;19920;-46
2022/08/29 08:25:41;;;;;;;;;;;19.40;92.30;;;;;;5053820;28;19908;-48
2022/08/29 08:28:07;;;;;;;;;;;19.60;92.20;;;;;;5053738;28;19915;-45
2022/08/29 08:30:33;;;;;;;;;;;19.70;92.00;;;;;;5055186;28;19921;-47
2022/08/29 08:32:59;;;;;;;;;;;19.60;92.00;;;;;;5054947;28;19923;-50
2022/08/29 08:35:25;;;;;;;;;;;19.50;92.20;;;;;;5055377;28;19909;-48
2022/08/29 08:37:51;;;;;;;;;;;19.60;92.50;;;;;;5053447;28;19959;-53
2022/08/29 08:40:21;;;;;;;;;;;19.80;91.90;;;;;;5054450;28;19912;-51
2022/08/29 08:42:48;;;;;;;;;;;19.90;92.00;;;;;;5054603;28;19917;-48
2022/08/29 08:45:16;;;;;;;;;;;19.90;91.80;;;;;;5054742;28;19956;-51
2022/08/29 08:47:50;;;;;;;;;;;19.90;91.60;;;;;;5057423;28;20308;-49
2022/08/29 08:50:24;;;;;;;;;;;20.00;91.80;;;;;;5060992;28;19917;-54
2022/08/29 08:52:53;;;;;;;;;;;19.90;91.60;;;;;;5062300;28;19909;-49
2022/08/29 08:55:21;;;;;;;;;;;19.60;92.00;;;;;;5062110;28;19962;-53
2022/08/29 08:57:53;;;;;;;;;;;19.80;92.20;;;;;;5047940;28;19914;-49
2022/08/29 09:00:19;;;;;;;;;;;20.00;91.60;;;;;;5060519;28;19992;-51
2022/08/29 09:02:58;;;;;;;;;;;20.20;91.60;;;;;;5062066;28;20392;-51
2022/08/29 09:05:33;;;;;;;;;;;20.20;91.40;;;;;;5064749;28;19909;-49
2022/08/29 09:08:31;;;;;;;;;;;20.30;91.30;;;;;;5052628;28;19992;-51
2022/08/29 09:11:12;;;;;;;;;;;20.00;91.70;;;;;;5036080;28;19919;-54
2022/08/29 09:13:45;;;;;;;;;;;20.00;91.60;;;;;;5052710;28;19921;-56
2022/08/29 09:16:19;;;;;;;;;;;20.10;91.80;;;;;;5053025;28;20384;-53
2022/08/29 09:18:44;;;;;;;;;;;20.40;91.60;;;;;;5055520;28;19919;-52
2022/08/29 09:21:13;;;;;;;;;;;20.70;90.80;;;;;;5054318;28;19924;-56
2022/08/29 09:23:38;;;;;;;;;;;20.90;90.60;;;;;;5051560;28;19921;-49
2022/08/29 09:26:04;;;;;;;;;;;20.90;90.70;;;;;;5061179;28;19909;-53
2022/08/29 09:28:30;;;;;;;;;;;21.10;90.70;;;;;;5059532;28;19920;-51
2022/08/29 09:31:15;;;;;;;;;;;21.10;90.40;;;;;;5062883;28;19995;-50
2022/08/29 09:34:00;;;;;;;;;;;21.10;90.60;;;;;;5040801;28;20388;-50
2022/08/29 09:36:47;;;;;;;;;;;21.50;89.80;;;;;;5065296;28;19909;-52
2022/08/29 09:39:19;;;;;;;;;;;21.40;89.90;;;;;;5060068;28;20003;-50
2022/08/29 09:41:46;;;;;;;;;;;21.60;89.80;;;;;;5061482;28;19909;-53
2022/08/29 09:44:14;;;;;;;;;;;21.30;89.60;;;;;;5062398;28;19916;-52
2022/08/29 09:46:39;;;;;;;;;;;21.20;90.00;;;;;;5063699;28;19917;-51
2022/08/29 09:49:12;;;;;;;;;;;21.20;90.00;;;;;;5060777;28;21598;-49
2022/08/29 09:51:46;;;;;;;;;;;21.10;90.00;;;;;;5063783;28;19913;-51
2022/08/29 09:54:21;;;;;;;;;;;21.00;90.10;;;;;;5060879;28;20359;-51
2022/08/29 09:57:04;;;;;;;;;;;20.90;90.30;;;;;;5053093;28;19928;-49
2022/08/29 09:59:40;;;;;;;;;;;21.10;90.20;;;;;;5055116;28;20261;-51
2022/08/29 10:02:26;;;;;;;;;;;21.10;90.80;;;;;;5058040;28;19913;-53
2022/08/29 10:04:52;;;;;;;;;;;21.10;90.60;;;;;;5060768;28;20046;-50
2022/08/29 10:07:23;;;;;;;;;;;21.20;90.40;;;;;;5035300;28;20649;-47
2022/08/29 10:09:53;;;;;;;;;;;21.10;90.60;;;;;;5045750;28;19919;-52
2022/08/29 10:12:23;;;;;;;;;;;21.60;89.60;;;;;;5052321;28;19921;-52
2022/08/29 10:14:52;;;;;;;;;;;21.90;88.90;;;;;;5046409;28;20027;-49
2022/08/29 10:20:27;;;;;;;;;;;21.70;90.00;;;;;;5053515;28;19916;-48
2022/08/29 10:22:59;;;;;;;;;;;21.70;89.40;;;;;;5053385;28;19999;-51
2022/08/29 10:25:36;;;;;;;;;;;21.50;89.60;;;;;;5054011;28;20009;-52
2022/08/29 10:28:13;;;;;;;;;;;21.70;90.00;;;;;;5048933;28;19913;-53
2022/08/29 10:30:48;;;;;;;;;;;21.90;89.30;;;;;;5050034;28;19915;-53
2022/08/29 10:33:13;;;;;;;;;;;21.90;90.00;;;;;;5053338;28;19959;-53
2022/08/29 10:35:42;;;;;;;;;;;21.90;89.30;;;;;;5054098;28;19912;-52
2022/08/29 10:38:21;;;;;;;;;;;22.10;89.00;;;;;;5051453;28;19913;-49
2022/08/29 10:40:48;;;;;;;;;;;22.20;88.70;;;;;;5052847;28;19915;-52
2022/08/29 10:43:15;;;;;;;;;;;22.30;88.40;;;;;;5053359;28;20276;-48
2022/08/29 10:45:54;;;;;;;;;;;22.40;87.90;;;;;;5053951;28;19943;-49
2022/08/29 10:48:26;;;;;;;;;;;22.30;88.50;;;;;;5053237;28;19983;-48
2022/08/29 10:51:15;;;;;;;;;;;22.30;89.00;;;;;;5052371;28;19913;-54
2022/08/29 10:53:44;;;;;;;;;;;22.40;88.50;;;;;;5052910;28;19917;-48
2022/08/29 10:56:21;;;;;;;;;;;22.50;88.60;;;;;;5047397;28;19913;-49
2022/08/29 10:58:59;;;;;;;;;;;22.60;88.60;;;;;;5052945;28;19924;-53
2022/08/29 11:01:31;;;;;;;;;;;22.90;87.00;;;;;;5052337;28;19909;-50
2022/08/29 11:04:00;;;;;;;;;;;23.10;87.20;;;;;;5053648;28;19912;-51
2022/08/29 11:06:31;;;;;;;;;;;23.10;86.90;;;;;;5053176;28;20524;-52
2022/08/29 11:09:03;;;;;;;;;;;23.20;86.70;;;;;;5053207;28;19913;-50
2022/08/29 11:11:29;;;;;;;;;;;23.10;86.80;;;;;;5054845;28;20338;-54
2022/08/29 11:13:57;;;;;;;;;;;22.70;86.70;;;;;;5058405;28;20016;-50
2022/08/29 11:16:38;;;;;;;;;;;22.70;87.40;;;;;;5052924;28;19917;-55
2022/08/29 11:19:10;;;;;;;;;;;22.70;87.10;;;;;;5052748;28;20433;-53
2022/08/29 11:21:35;;;;;;;;;;;22.70;87.10;;;;;;5052583;28;19908;-51
2022/08/29 11:24:02;;;;;;;;;;;23.00;87.20;;;;;;5052977;28;19912;-54
2022/08/29 11:26:28;;;;;;;;;;;23.10;86.90;;;;;;5052522;28;19913;-50
2022/08/29 11:29:00;;;;;;;;;;;23.20;86.60;;;;;;5052993;28;20270;-49
2022/08/29 11:31:44;;;;;;;;;;;23.20;86.80;;;;;;5052840;28;19909;-50
2022/08/29 11:34:19;;;;;;;;;;;23.20;86.10;;;;;;5052314;28;19915;-50
2022/08/29 11:37:03;;;;;;;;;;;23.10;86.80;;;;;;5053079;28;20316;-50
2022/08/29 11:39:39;;;;;;;;;;;22.80;87.30;;;;;;5053216;28;19916;-51
2022/08/29 11:42:07;;;;;;;;;;;22.80;87.10;;;;;;5051992;28;19970;-51
2022/08/29 11:44:41;;;;;;;;;;;23.10;86.60;;;;;;5031290;28;19971;-53
2022/08/29 11:47:25;;;;;;;;;;;23.30;85.40;;;;;;5032568;28;19917;-52
2022/08/29 11:49:51;;;;;;;;;;;23.40;85.30;;;;;;5032906;28;19985;-54
2022/08/29 11:52:18;;;;;;;;;;;23.50;83.40;;;;;;5031504;28;19972;-48
2022/08/29 11:54:47;;;;;;;;;;;23.60;82.60;;;;;;5048216;28;20003;-52
2022/08/29 11:57:13;;;;;;;;;;;23.70;82.70;;;;;;5051766;28;19913;-50
2022/08/29 11:59:47;;;;;;;;;;;23.60;82.70;;;;;;5048541;28;19939;-52
2022/08/29 12:02:29;;;;;;;;;;;23.70;83.50;;;;;;5051818;28;20451;-49
2022/08/29 12:05:06;;;;;;;;;;;23.80;83.40;;;;;;5048839;28;19913;-48
2022/08/29 12:07:32;;;;;;;;;;;23.70;83.60;;;;;;5055997;28;20001;-49
2022/08/29 12:09:59;;;;;;;;;;;24.00;83.80;;;;;;5054476;28;20152;-52
2022/08/29 12:12:43;;;;;;;;;;;23.50;84.80;;;;;;5055098;28;20256;-53
2022/08/29 12:15:28;;;;;;;;;;;23.20;85.30;;;;;;5054845;28;20365;-50
2022/08/29 12:17:55;;;;;;;;;;;23.10;85.70;;;;;;5056683;28;19909;-51
2022/08/29 12:20:29;;;;;;;;;;;23.10;85.70;;;;;;5054531;28;19944;-53
2022/08/29 12:23:11;;;;;;;;;;;23.20;85.50;;;;;;5050849;28;19917;-55
2022/08/29 12:25:42;;;;;;;;;;;23.30;84.80;;;;;;5055748;28;19909;-50
2022/08/29 12:28:17;;;;;;;;;;;23.40;84.70;;;;;;5055393;28;19909;-50
2022/08/29 12:30:45;;;;;;;;;;;23.80;84.10;;;;;;5055322;28;19920;-54
2022/08/29 12:33:20;;;;;;;;;;;24.00;83.00;;;;;;5042041;28;19938;-50
2022/08/29 12:36:00;;;;;;;;;;;24.30;82.70;;;;;;5052396;28;20376;-51
2022/08/29 12:38:48;;;;;;;;;;;24.00;83.20;;;;;;5049637;28;19920;-49
2022/08/29 12:41:14;;;;;;;;;;;23.70;83.80;;;;;;5052365;28;20004;-52
2022/08/29 12:43:44;;;;;;;;;;;23.40;84.90;;;;;;5055399;28;20021;-51
2022/08/29 12:46:24;;;;;;;;;;;23.50;85.10;;;;;;5054343;28;19909;-51
2022/08/29 12:48:52;;;;;;;;;;;23.70;83.90;;;;;;5053798;28;20007;-51
2022/08/29 12:51:35;;;;;;;;;;;23.80;83.10;;;;;;5053456;28;19912;-53
2022/08/29 12:54:01;;;;;;;;;;;24.00;83.60;;;;;;5055197;28;19912;-52
2022/08/29 12:56:27;;;;;;;;;;;24.10;82.80;;;;;;5056250;28;19920;-53
2022/08/29 12:58:52;;;;;;;;;;;24.30;83.20;;;;;;5056351;28;19925;-49
2022/08/29 13:01:24;;;;;;;;;;;24.40;82.60;;;;;;5054119;28;20560;-53
2022/08/29 13:03:54;;;;;;;;;;;24.50;82.20;;;;;;5055980;28;19921;-53
2022/08/29 13:06:19;;;;;;;;;;;24.40;82.00;;;;;;5052117;28;19964;-53
2022/08/29 13:08:47;;;;;;;;;;;24.60;81.80;;;;;;5055812;28;19924;-51
2022/08/29 13:11:17;;;;;;;;;;;25.00;80.50;;;;;;5049746;28;19923;-48
2022/08/29 13:13:43;;;;;;;;;;;25.40;81.10;;;;;;5050998;28;19923;-48
2022/08/29 13:16:21;;;;;;;;;;;25.80;79.40;;;;;;5048107;28;20015;-48
2022/08/29 13:18:46;;;;;;;;;;;25.60;77.90;;;;;;5054352;28;19997;-53
2022/08/29 13:21:22;;;;;;;;;;;25.40;78.50;;;;;;5054389;28;19956;-50
2022/08/29 13:24:08;;;;;;;;;;;25.40;77.90;;;;;;5054400;28;20264;-49
2022/08/29 13:26:36;;;;;;;;;;;25.40;77.30;;;;;;5053585;28;19935;-51
2022/08/29 13:29:07;;;;;;;;;;;25.50;77.90;;;;;;5055103;28;19913;-55
2022/08/29 13:31:37;;;;;;;;;;;25.50;77.60;;;;;;5054370;28;20323;-48
2022/08/29 13:34:13;;;;;;;;;;;25.40;77.70;;;;;;5054643;28;19913;-52
2022/08/29 13:36:59;;;;;;;;;;;25.30;77.70;;;;;;5054176;28;19948;-48
2022/08/29 13:39:27;;;;;;;;;;;25.00;78.30;;;;;;5054355;28;19913;-51
2022/08/29 13:42:01;;;;;;;;;;;24.70;78.50;;;;;;5054009;28;19976;-52
2022/08/29 13:44:29;;;;;;;;;;;24.50;79.30;;;;;;5054158;28;20361;-50
2022/08/29 13:46:58;;;;;;;;;;;24.30;79.50;;;;;;5051649;28;19952;-53
2022/08/29 13:49:25;;;;;;;;;;;24.30;80.10;;;;;;5054380;28;19913;-52
2022/08/29 13:51:50;;;;;;;;;;;24.30;80.20;;;;;;5054142;28;19960;-55
2022/08/29 13:54:16;;;;;;;;;;;24.30;79.60;;;;;;5045540;28;20331;-49
2022/08/29 13:56:42;;;;;;;;;;;24.50;79.40;;;;;;5054951;28;19923;-49
2022/08/29 13:59:08;;;;;;;;;;;25.00;79.80;;;;;;5054173;28;19982;-49
2022/08/29 14:01:34;;;;;;;;;;;25.60;77.40;;;;;;5053830;28;19938;-49
2022/08/29 14:03:59;;;;;;;;;;;26.20;76.60;;;;;;5053772;28;19917;-50
2022/08/29 14:06:25;;;;;;;;;;;26.60;75.90;;;;;;5054754;28;19972;-52
2022/08/29 14:08:51;;;;;;;;;;;27.00;74.60;;;;;;5053542;28;19966;-52
2022/08/29 14:11:17;;;;;;;;;;;27.20;74.10;;;;;;5053356;28;19916;-54
2022/08/29 14:13:44;;;;;;;;;;;27.40;73.40;;;;;;5053294;28;20007;-53
2022/08/29 14:16:10;;;;;;;;;;;27.50;73.10;;;;;;5053724;28;20383;-51
2022/08/29 14:18:36;;;;;;;;;;;27.30;73.00;;;;;;5054208;28;19909;-48
2022/08/29 14:21:02;;;;;;;;;;;27.50;73.30;;;;;;5051762;28;19975;-51
2022/08/29 14:23:27;;;;;;;;;;;27.30;73.00;;;;;;5052163;28;19967;-49
2022/08/29 14:25:53;;;;;;;;;;;27.40;73.50;;;;;;5051750;28;19917;-49
2022/08/29 14:28:18;;;;;;;;;;;27.20;73.10;;;;;;5053571;28;19963;-50
2022/08/29 14:30:44;;;;;;;;;;;27.30;73.30;;;;;;5053639;28;20316;-50